sensor_id;sensor_type;location;lat;lon;timestamp;temperature;humidity
74822;DHT22;63353;48.702;8.884;2023-07-28T00:02:27;15.80;99.90
74822;DHT22;63353;48.702;8.884;2023-07-28T00:04:56;15.80;99.90
74822;DHT22;63353;48.702;8.884;2023-07-28T00:07:22;15.70;99.90
74822;DHT22;63353;48.702;8.884;2023-07-28T00:09:50;15.70;99.90
74822;DHT22;63353;48.702;8.884;2023-07-28T00:12:16;15.60;99.90
74822;DHT22;63353;48.702;8.884;2023-07-28T00:14:42;15.60;99.90
74822;DHT22;63353;48.702;8.884;2023-07-28T00:17:07;15.50;99.90
74822;DHT22;63353;48.702;8.884;2023-07-28T00:19:33;15.40;99.90
74822;DHT22;63353;48.702;8.884;2023-07-28T00:22:04;15.30;99.90
74822;DHT22;63353;48.702;8.884;2023-07-28T00:24:30;15.20;99.90
74822;DHT22;63353;48.702;8.884;2023-07-28T00:26:56;15.20;99.90
74822;DHT22;63353;48.702;8.884;2023-07-28T00:29:21;15.20;99.90
74822;DHT22;63353;48.702;8.884;2023-07-28T00:31:47;15.30;99.90
74822;DHT22;63353;48.702;8.884;2023-07-28T00:34:18;15.30;99.90
74822;DHT22;63353;48.702;8.884;2023-07-28T00:36:47;15.40;99.90
74822;DHT22;63353;48.702;8.884;2023-07-28T00:39:12;15.40;99.90
74822;DHT22;63353;48.702;8.884;2023-07-28T00:41:39;15.50;99.90
74822;DHT22;63353;48.702;8.884;2023-07-28T00:44:04;15.40;99.90
74822;DHT22;63353;48.702;8.884;2023-07-28T00:46:33;15.50;99.90
74822;DHT22;63353;48.702;8.884;2023-07-28T00:49:01;15.40;99.90
74822;DHT22;63353;48.702;8.884;2023-07-28T00:51:31;15.30;99.90
74822;DHT22;63353;48.702;8.884;2023-07-28T00:53:57;15.30;99.90
74822;DHT22;63353;48.702;8.884;2023-07-28T00:56:27;15.30;99.90
74822;DHT22;63353;48.702;8.884;2023-07-28T00:58:56;15.10;99.90
74822;DHT22;63353;48.702;8.884;2023-07-28T01:01:25;15.20;99.90
74822;DHT22;63353;48.702;8.884;2023-07-28T01:03:55;15.10;99.90
74822;DHT22;63353;48.702;8.884;2023-07-28T01:06:47;15.20;99.90
74822;DHT22;63353;48.702;8.884;2023-07-28T01:09:21;15.20;99.90
74822;DHT22;63353;48.702;8.884;2023-07-28T01:11:58;15.20;99.90
74822;DHT22;63353;48.702;8.884;2023-07-28T01:14:24;15.10;99.90
74822;DHT22;63353;48.702;8.884;2023-07-28T01:16:53;15.10;99.90
74822;DHT22;63353;48.702;8.884;2023-07-28T01:19:20;15.10;99.90
74822;DHT22;63353;48.702;8.884;2023-07-28T01:21:57;15.20;99.90
74822;DHT22;63353;48.702;8.884;2023-07-28T01:24:49;15.10;99.90
74822;DHT22;63353;48.702;8.884;2023-07-28T01:27:19;15.20;99.90
74822;DHT22;63353;48.702;8.884;2023-07-28T01:29:46;15.20;99.90
74822;DHT22;63353;48.702;8.884;2023-07-28T01:32:13;15.30;99.90
74822;DHT22;63353;48.702;8.884;2023-07-28T01:34:42;15.30;99.90
74822;DHT22;63353;48.702;8.884;2023-07-28T01:37:17;15.30;99.90
74822;DHT22;63353;48.702;8.884;2023-07-28T01:39:49;15.40;99.90
74822;DHT22;63353;48.702;8.884;2023-07-28T01:42:17;15.30;99.90
74822;DHT22;63353;48.702;8.884;2023-07-28T01:44:43;15.20;99.90
74822;DHT22;63353;48.702;8.884;2023-07-28T01:47:08;15.10;99.90
74822;DHT22;63353;48.702;8.884;2023-07-28T01:49:34;15.10;99.90
74822;DHT22;63353;48.702;8.884;2023-07-28T01:51:59;15.00;99.90
74822;DHT22;63353;48.702;8.884;2023-07-28T01:54:28;15.00;99.90
74822;DHT22;63353;48.702;8.884;2023-07-28T01:56:56;15.10;99.90
74822;DHT22;63353;48.702;8.884;2023-07-28T01:59:28;15.00;99.90
74822;DHT22;63353;48.702;8.884;2023-07-28T02:01:56;15.00;99.90
74822;DHT22;63353;48.702;8.884;2023-07-28T02:04:26;15.00;99.90
74822;DHT22;63353;48.702;8.884;2023-07-28T02:06:52;15.00;99.90
74822;DHT22;63353;48.702;8.884;2023-07-28T02:09:20;15.00;99.90
74822;DHT22;63353;48.702;8.884;2023-07-28T02:11:46;14.90;99.90
74822;DHT22;63353;48.702;8.884;2023-07-28T02:14:18;14.80;99.90
74822;DHT22;63353;48.702;8.884;2023-07-28T02:16:44;14.70;99.90
74822;DHT22;63353;48.702;8.884;2023-07-28T02:19:09;14.70;99.90
74822;DHT22;63353;48.702;8.884;2023-07-28T02:21:44;14.80;99.90
74822;DHT22;63353;48.702;8.884;2023-07-28T02:24:10;14.90;99.90
74822;DHT22;63353;48.702;8.884;2023-07-28T02:26:35;14.90;99.90
74822;DHT22;63353;48.702;8.884;2023-07-28T02:29:01;14.90;99.90
74822;DHT22;63353;48.702;8.884;2023-07-28T02:31:32;15.10;99.90
74822;DHT22;63353;48.702;8.884;2023-07-28T02:33:58;15.20;99.90
74822;DHT22;63353;48.702;8.884;2023-07-28T02:36:32;15.20;99.90
74822;DHT22;63353;48.702;8.884;2023-07-28T02:38:58;15.20;99.90
74822;DHT22;63353;48.702;8.884;2023-07-28T02:41:26;15.30;99.90
74822;DHT22;63353;48.702;8.884;2023-07-28T02:43:58;15.40;99.90
74822;DHT22;63353;48.702;8.884;2023-07-28T02:46:27;15.50;99.90
74822;DHT22;63353;48.702;8.884;2023-07-28T02:48:55;15.50;99.90
74822;DHT22;63353;48.702;8.884;2023-07-28T02:51:21;15.60;99.90
74822;DHT22;63353;48.702;8.884;2023-07-28T02:53:46;15.60;99.90
74822;DHT22;63353;48.702;8.884;2023-07-28T02:56:15;15.70;99.90
74822;DHT22;63353;48.702;8.884;2023-07-28T02:58:40;15.70;99.90
74822;DHT22;63353;48.702;8.884;2023-07-28T03:01:09;15.70;99.90
74822;DHT22;63353;48.702;8.884;2023-07-28T03:03:35;15.70;99.90
74822;DHT22;63353;48.702;8.884;2023-07-28T03:06:03;15.90;99.90
74822;DHT22;63353;48.702;8.884;2023-07-28T03:08:29;15.90;99.90
74822;DHT22;63353;48.702;8.884;2023-07-28T03:10:58;15.90;99.90
74822;DHT22;63353;48.702;8.884;2023-07-28T03:13:27;15.90;99.90
74822;DHT22;63353;48.702;8.884;2023-07-28T03:15:52;16.00;99.90
74822;DHT22;63353;48.702;8.884;2023-07-28T03:18:21;16.00;99.90
74822;DHT22;63353;48.702;8.884;2023-07-28T03:20:47;16.00;99.90
74822;DHT22;63353;48.702;8.884;2023-07-28T03:23:19;16.10;99.90
74822;DHT22;63353;48.702;8.884;2023-07-28T03:25:44;16.10;99.90
74822;DHT22;63353;48.702;8.884;2023-07-28T03:28:10;16.10;99.90
74822;DHT22;63353;48.702;8.884;2023-07-28T03:30:38;16.20;99.90
74822;DHT22;63353;48.702;8.884;2023-07-28T03:33:04;16.20;99.90
74822;DHT22;63353;48.702;8.884;2023-07-28T03:35:33;16.20;99.90
74822;DHT22;63353;48.702;8.884;2023-07-28T03:38:02;16.30;99.90
74822;DHT22;63353;48.702;8.884;2023-07-28T03:40:31;16.40;99.90
74822;DHT22;63353;48.702;8.884;2023-07-28T03:42:57;16.30;99.90
74822;DHT22;63353;48.702;8.884;2023-07-28T03:45:29;16.30;99.90
74822;DHT22;63353;48.702;8.884;2023-07-28T03:47:55;16.30;99.90
74822;DHT22;63353;48.702;8.884;2023-07-28T03:50:23;16.20;99.90
74822;DHT22;63353;48.702;8.884;2023-07-28T03:52:58;16.10;99.90
74822;DHT22;63353;48.702;8.884;2023-07-28T03:55:24;15.80;99.90
74822;DHT22;63353;48.702;8.884;2023-07-28T03:57:50;15.70;99.90
74822;DHT22;63353;48.702;8.884;2023-07-28T04:00:16;15.60;99.90
74822;DHT22;63353;48.702;8.884;2023-07-28T04:02:41;15.60;99.90
74822;DHT22;63353;48.702;8.884;2023-07-28T04:05:10;15.50;99.90
74822;DHT22;63353;48.702;8.884;2023-07-28T04:07:36;15.50;99.90
74822;DHT22;63353;48.702;8.884;2023-07-28T04:10:01;15.50;99.90
74822;DHT22;63353;48.702;8.884;2023-07-28T04:12:27;15.50;99.90
74822;DHT22;63353;48.702;8.884;2023-07-28T04:14:56;15.50;99.90
74822;DHT22;63353;48.702;8.884;2023-07-28T04:17:22;15.40;99.90
74822;DHT22;63353;48.702;8.884;2023-07-28T04:19:48;15.40;99.90
74822;DHT22;63353;48.702;8.884;2023-07-28T04:22:19;15.40;99.90
74822;DHT22;63353;48.702;8.884;2023-07-28T04:24:47;15.40;99.90
74822;DHT22;63353;48.702;8.884;2023-07-28T04:27:14;15.30;99.90
74822;DHT22;63353;48.702;8.884;2023-07-28T04:29:45;15.30;99.90
74822;DHT22;63353;48.702;8.884;2023-07-28T04:32:17;15.30;99.90
74822;DHT22;63353;48.702;8.884;2023-07-28T04:34:43;15.30;99.90
74822;DHT22;63353;48.702;8.884;2023-07-28T04:37:08;15.30;99.90
74822;DHT22;63353;48.702;8.884;2023-07-28T04:39:37;15.30;99.90
74822;DHT22;63353;48.702;8.884;2023-07-28T04:42:03;15.30;99.90
74822;DHT22;63353;48.702;8.884;2023-07-28T04:44:28;15.30;99.90
74822;DHT22;63353;48.702;8.884;2023-07-28T04:46:54;15.30;99.90
74822;DHT22;63353;48.702;8.884;2023-07-28T04:49:20;15.30;99.90
74822;DHT22;63353;48.702;8.884;2023-07-28T04:51:46;15.30;99.90
74822;DHT22;63353;48.702;8.884;2023-07-28T04:54:12;15.20;99.90
74822;DHT22;63353;48.702;8.884;2023-07-28T04:56:41;15.30;99.90
74822;DHT22;63353;48.702;8.884;2023-07-28T04:59:06;15.30;99.90
74822;DHT22;63353;48.702;8.884;2023-07-28T05:01:33;15.30;99.90
74822;DHT22;63353;48.702;8.884;2023-07-28T05:03:59;15.30;99.90
74822;DHT22;63353;48.702;8.884;2023-07-28T05:06:24;15.20;99.90
74822;DHT22;63353;48.702;8.884;2023-07-28T05:08:50;15.30;99.90
74822;DHT22;63353;48.702;8.884;2023-07-28T05:11:15;15.30;99.90
74822;DHT22;63353;48.702;8.884;2023-07-28T05:13:41;15.30;99.90
74822;DHT22;63353;48.702;8.884;2023-07-28T05:16:06;15.30;99.90
74822;DHT22;63353;48.702;8.884;2023-07-28T05:18:32;15.30;99.90
74822;DHT22;63353;48.702;8.884;2023-07-28T05:20:58;15.20;99.90
74822;DHT22;63353;48.702;8.884;2023-07-28T05:23:23;15.30;99.90
74822;DHT22;63353;48.702;8.884;2023-07-28T05:25:49;15.30;99.90
74822;DHT22;63353;48.702;8.884;2023-07-28T05:28:15;15.30;99.90
74822;DHT22;63353;48.702;8.884;2023-07-28T05:30:40;15.30;99.90
74822;DHT22;63353;48.702;8.884;2023-07-28T05:33:06;15.40;99.90
74822;DHT22;63353;48.702;8.884;2023-07-28T05:35:32;15.40;99.90
74822;DHT22;63353;48.702;8.884;2023-07-28T05:37:58;15.40;99.90
74822;DHT22;63353;48.702;8.884;2023-07-28T05:40:23;15.40;99.90
74822;DHT22;63353;48.702;8.884;2023-07-28T05:42:49;15.40;99.90
74822;DHT22;63353;48.702;8.884;2023-07-28T05:45:15;15.40;99.90
74822;DHT22;63353;48.702;8.884;2023-07-28T05:47:40;15.40;99.90
74822;DHT22;63353;48.702;8.884;2023-07-28T05:50:06;15.50;99.90
74822;DHT22;63353;48.702;8.884;2023-07-28T05:52:32;15.50;99.90
74822;DHT22;63353;48.702;8.884;2023-07-28T05:54:58;15.50;99.90
74822;DHT22;63353;48.702;8.884;2023-07-28T05:57:24;15.50;99.90
74822;DHT22;63353;48.702;8.884;2023-07-28T05:59:50;15.50;99.90
74822;DHT22;63353;48.702;8.884;2023-07-28T06:02:15;15.60;99.90
74822;DHT22;63353;48.702;8.884;2023-07-28T06:04:41;15.60;99.90
74822;DHT22;63353;48.702;8.884;2023-07-28T06:07:07;15.60;99.90
74822;DHT22;63353;48.702;8.884;2023-07-28T06:09:32;15.70;99.90
74822;DHT22;63353;48.702;8.884;2023-07-28T06:11:58;15.70;99.90
74822;DHT22;63353;48.702;8.884;2023-07-28T06:14:24;15.80;99.90
74822;DHT22;63353;48.702;8.884;2023-07-28T06:16:50;15.80;99.90
74822;DHT22;63353;48.702;8.884;2023-07-28T06:19:16;15.90;99.90
74822;DHT22;63353;48.702;8.884;2023-07-28T06:21:42;16.00;99.90
74822;DHT22;63353;48.702;8.884;2023-07-28T06:24:08;16.10;99.90
74822;DHT22;63353;48.702;8.884;2023-07-28T06:26:33;16.20;99.90
74822;DHT22;63353;48.702;8.884;2023-07-28T06:28:59;16.30;99.90
74822;DHT22;63353;48.702;8.884;2023-07-28T06:31:24;16.30;99.90
74822;DHT22;63353;48.702;8.884;2023-07-28T06:33:50;16.40;99.90
74822;DHT22;63353;48.702;8.884;2023-07-28T06:36:16;16.50;99.90
74822;DHT22;63353;48.702;8.884;2023-07-28T06:38:43;16.50;99.90
74822;DHT22;63353;48.702;8.884;2023-07-28T06:41:12;16.60;99.90
74822;DHT22;63353;48.702;8.884;2023-07-28T06:43:38;16.60;99.90
74822;DHT22;63353;48.702;8.884;2023-07-28T06:46:03;16.70;99.90
74822;DHT22;63353;48.702;8.884;2023-07-28T06:48:29;16.80;99.90
74822;DHT22;63353;48.702;8.884;2023-07-28T06:50:55;17.00;99.90
74822;DHT22;63353;48.702;8.884;2023-07-28T06:53:21;17.10;99.90
74822;DHT22;63353;48.702;8.884;2023-07-28T06:55:46;17.30;99.90
74822;DHT22;63353;48.702;8.884;2023-07-28T06:58:12;17.40;99.90
74822;DHT22;63353;48.702;8.884;2023-07-28T07:00:38;17.60;99.90
74822;DHT22;63353;48.702;8.884;2023-07-28T07:03:04;17.90;99.90
74822;DHT22;63353;48.702;8.884;2023-07-28T07:05:29;18.10;99.90
74822;DHT22;63353;48.702;8.884;2023-07-28T07:07:55;18.20;99.90
74822;DHT22;63353;48.702;8.884;2023-07-28T07:10:21;18.40;99.90
74822;DHT22;63353;48.702;8.884;2023-07-28T07:12:53;18.50;99.90
74822;DHT22;63353;48.702;8.884;2023-07-28T07:15:21;18.60;99.90
74822;DHT22;63353;48.702;8.884;2023-07-28T07:17:50;18.70;99.90
74822;DHT22;63353;48.702;8.884;2023-07-28T07:20:16;18.80;99.90
74822;DHT22;63353;48.702;8.884;2023-07-28T07:22:41;19.00;99.90
74822;DHT22;63353;48.702;8.884;2023-07-28T07:25:07;19.00;99.90
74822;DHT22;63353;48.702;8.884;2023-07-28T07:27:33;19.00;99.90
74822;DHT22;63353;48.702;8.884;2023-07-28T07:29:59;19.00;99.90
74822;DHT22;63353;48.702;8.884;2023-07-28T07:32:25;19.00;99.90
74822;DHT22;63353;48.702;8.884;2023-07-28T07:34:50;19.00;99.90
74822;DHT22;63353;48.702;8.884;2023-07-28T07:37:18;18.90;99.90
74822;DHT22;63353;48.702;8.884;2023-07-28T07:39:44;18.90;99.90
74822;DHT22;63353;48.702;8.884;2023-07-28T07:42:10;18.90;99.90
74822;DHT22;63353;48.702;8.884;2023-07-28T07:44:37;18.90;99.90
74822;DHT22;63353;48.702;8.884;2023-07-28T07:47:12;18.90;99.90
74822;DHT22;63353;48.702;8.884;2023-07-28T07:49:39;18.90;99.90
74822;DHT22;63353;48.702;8.884;2023-07-28T07:52:06;18.90;99.90
74822;DHT22;63353;48.702;8.884;2023-07-28T07:54:32;18.90;99.90
74822;DHT22;63353;48.702;8.884;2023-07-28T07:56:58;18.90;99.90
74822;DHT22;63353;48.702;8.884;2023-07-28T07:59:23;19.00;99.90
74822;DHT22;63353;48.702;8.884;2023-07-28T08:01:53;19.10;99.90
74822;DHT22;63353;48.702;8.884;2023-07-28T08:04:19;19.30;99.90
74822;DHT22;63353;48.702;8.884;2023-07-28T08:06:45;19.40;99.90
74822;DHT22;63353;48.702;8.884;2023-07-28T08:09:10;19.40;99.90
74822;DHT22;63353;48.702;8.884;2023-07-28T08:11:36;19.50;99.90
74822;DHT22;63353;48.702;8.884;2023-07-28T08:14:02;19.70;99.90
74822;DHT22;63353;48.702;8.884;2023-07-28T08:16:27;19.70;99.90
74822;DHT22;63353;48.702;8.884;2023-07-28T08:18:53;19.70;99.90
74822;DHT22;63353;48.702;8.884;2023-07-28T08:21:19;19.80;99.90
74822;DHT22;63353;48.702;8.884;2023-07-28T08:23:44;19.90;99.90
74822;DHT22;63353;48.702;8.884;2023-07-28T08:26:10;19.60;99.90
74822;DHT22;63353;48.702;8.884;2023-07-28T08:28:36;19.80;99.90
74822;DHT22;63353;48.702;8.884;2023-07-28T08:31:01;20.00;99.90
74822;DHT22;63353;48.702;8.884;2023-07-28T08:33:29;20.20;99.90
74822;DHT22;63353;48.702;8.884;2023-07-28T08:35:54;20.40;99.90
74822;DHT22;63353;48.702;8.884;2023-07-28T08:38:20;20.60;99.90
74822;DHT22;63353;48.702;8.884;2023-07-28T08:40:46;20.70;99.90
74822;DHT22;63353;48.702;8.884;2023-07-28T08:43:11;20.80;99.90
74822;DHT22;63353;48.702;8.884;2023-07-28T08:45:37;20.70;99.90
74822;DHT22;63353;48.702;8.884;2023-07-28T08:48:04;20.70;99.90
74822;DHT22;63353;48.702;8.884;2023-07-28T08:50:30;21.00;99.90
74822;DHT22;63353;48.702;8.884;2023-07-28T08:52:59;21.20;99.90
74822;DHT22;63353;48.702;8.884;2023-07-28T08:55:25;21.30;99.90
74822;DHT22;63353;48.702;8.884;2023-07-28T08:57:51;21.30;99.90
74822;DHT22;63353;48.702;8.884;2023-07-28T09:00:17;21.30;99.90
74822;DHT22;63353;48.702;8.884;2023-07-28T09:02:43;21.30;99.90
74822;DHT22;63353;48.702;8.884;2023-07-28T09:05:20;21.30;99.90
74822;DHT22;63353;48.702;8.884;2023-07-28T09:07:45;21.60;99.90
74822;DHT22;63353;48.702;8.884;2023-07-28T09:10:12;21.80;99.90
74822;DHT22;63353;48.702;8.884;2023-07-28T09:12:50;21.90;99.90
74822;DHT22;63353;48.702;8.884;2023-07-28T09:15:16;21.60;99.90
74822;DHT22;63353;48.702;8.884;2023-07-28T09:17:45;21.60;99.90
74822;DHT22;63353;48.702;8.884;2023-07-28T09:20:15;21.60;99.90
74822;DHT22;63353;48.702;8.884;2023-07-28T09:22:44;21.70;99.90
74822;DHT22;63353;48.702;8.884;2023-07-28T09:25:16;22.00;99.90
74822;DHT22;63353;48.702;8.884;2023-07-28T09:27:52;22.20;99.90
74822;DHT22;63353;48.702;8.884;2023-07-28T09:30:18;22.40;99.90
74822;DHT22;63353;48.702;8.884;2023-07-28T09:32:49;22.30;99.90
74822;DHT22;63353;48.702;8.884;2023-07-28T09:35:16;22.30;99.90
74822;DHT22;63353;48.702;8.884;2023-07-28T09:37:44;22.60;99.90
74822;DHT22;63353;48.702;8.884;2023-07-28T09:40:16;22.60;99.90
74822;DHT22;63353;48.702;8.884;2023-07-28T09:42:43;22.30;99.90
74822;DHT22;63353;48.702;8.884;2023-07-28T09:45:10;22.20;99.90
74822;DHT22;63353;48.702;8.884;2023-07-28T09:47:37;22.10;99.90
74822;DHT22;63353;48.702;8.884;2023-07-28T09:50:06;22.00;99.90
74822;DHT22;63353;48.702;8.884;2023-07-28T09:52:37;21.80;99.90
74822;DHT22;63353;48.702;8.884;2023-07-28T09:55:09;21.80;99.90
74822;DHT22;63353;48.702;8.884;2023-07-28T10:00:15;22.00;99.90
74822;DHT22;63353;48.702;8.884;2023-07-28T10:02:41;22.20;99.90
74822;DHT22;63353;48.702;8.884;2023-07-28T10:05:08;22.10;99.90
74822;DHT22;63353;48.702;8.884;2023-07-28T10:07:41;21.90;99.90
74822;DHT22;63353;48.702;8.884;2023-07-28T10:10:13;22.00;99.90
74822;DHT22;63353;48.702;8.884;2023-07-28T10:12:53;22.00;99.90
74822;DHT22;63353;48.702;8.884;2023-07-28T10:15:21;22.10;99.90
74822;DHT22;63353;48.702;8.884;2023-07-28T10:17:55;22.30;99.90
74822;DHT22;63353;48.702;8.884;2023-07-28T10:20:36;22.90;99.90
74822;DHT22;63353;48.702;8.884;2023-07-28T10:23:12;23.20;99.90
74822;DHT22;63353;48.702;8.884;2023-07-28T10:25:38;23.20;99.90
74822;DHT22;63353;48.702;8.884;2023-07-28T10:28:07;23.30;99.90
74822;DHT22;63353;48.702;8.884;2023-07-28T10:30:38;23.30;99.90
74822;DHT22;63353;48.702;8.884;2023-07-28T10:33:04;23.20;99.90
74822;DHT22;63353;48.702;8.884;2023-07-28T10:35:30;23.20;99.90
74822;DHT22;63353;48.702;8.884;2023-07-28T10:37:57;23.20;99.90
74822;DHT22;63353;48.702;8.884;2023-07-28T10:42:57;22.60;99.90
74822;DHT22;63353;48.702;8.884;2023-07-28T10:45:26;22.70;99.90
74822;DHT22;63353;48.702;8.884;2023-07-28T10:47:53;23.00;99.90
74822;DHT22;63353;48.702;8.884;2023-07-28T10:50:21;23.20;99.90
74822;DHT22;63353;48.702;8.884;2023-07-28T10:52:47;23.50;99.90
74822;DHT22;63353;48.702;8.884;2023-07-28T10:55:18;23.70;99.90
74822;DHT22;63353;48.702;8.884;2023-07-28T10:57:45;23.70;99.90
74822;DHT22;63353;48.702;8.884;2023-07-28T11:00:12;23.80;99.90
74822;DHT22;63353;48.702;8.884;2023-07-28T11:02:45;23.50;99.90
74822;DHT22;63353;48.702;8.884;2023-07-28T11:05:22;23.40;99.90
74822;DHT22;63353;48.702;8.884;2023-07-28T11:07:49;23.10;99.90
74822;DHT22;63353;48.702;8.884;2023-07-28T11:10:15;22.80;99.90
74822;DHT22;63353;48.702;8.884;2023-07-28T11:12:48;22.70;99.90
74822;DHT22;63353;48.702;8.884;2023-07-28T11:15:16;23.00;99.90
74822;DHT22;63353;48.702;8.884;2023-07-28T11:17:52;22.90;99.90
74822;DHT22;63353;48.702;8.884;2023-07-28T11:20:24;22.80;99.90
74822;DHT22;63353;48.702;8.884;2023-07-28T11:22:57;22.50;99.90
74822;DHT22;63353;48.702;8.884;2023-07-28T11:25:25;22.40;99.90
74822;DHT22;63353;48.702;8.884;2023-07-28T11:27:51;22.50;99.90
74822;DHT22;63353;48.702;8.884;2023-07-28T11:30:18;22.50;99.90
74822;DHT22;63353;48.702;8.884;2023-07-28T11:32:46;22.40;99.90
74822;DHT22;63353;48.702;8.884;2023-07-28T11:35:13;22.30;99.90
74822;DHT22;63353;48.702;8.884;2023-07-28T11:37:41;21.80;99.90
74822;DHT22;63353;48.702;8.884;2023-07-28T11:40:08;21.20;99.90
74822;DHT22;63353;48.702;8.884;2023-07-28T11:42:41;21.10;99.90
74822;DHT22;63353;48.702;8.884;2023-07-28T11:45:10;21.00;99.90
74822;DHT22;63353;48.702;8.884;2023-07-28T11:47:36;21.10;99.90
74822;DHT22;63353;48.702;8.884;2023-07-28T11:50:02;21.30;99.90
74822;DHT22;63353;48.702;8.884;2023-07-28T11:52:32;21.50;99.90
74822;DHT22;63353;48.702;8.884;2023-07-28T11:55:02;21.60;99.90
74822;DHT22;63353;48.702;8.884;2023-07-28T11:57:30;21.80;99.90
74822;DHT22;63353;48.702;8.884;2023-07-28T12:00:03;22.10;99.90
74822;DHT22;63353;48.702;8.884;2023-07-28T12:02:31;22.00;99.90
74822;DHT22;63353;48.702;8.884;2023-07-28T12:04:58;22.00;99.90
74822;DHT22;63353;48.702;8.884;2023-07-28T12:07:29;22.40;99.90
74822;DHT22;63353;48.702;8.884;2023-07-28T12:10:03;22.70;99.90
74822;DHT22;63353;48.702;8.884;2023-07-28T12:12:40;23.00;99.90
74822;DHT22;63353;48.702;8.884;2023-07-28T12:15:25;23.10;99.90
74822;DHT22;63353;48.702;8.884;2023-07-28T12:20:43;23.30;99.90
74822;DHT22;63353;48.702;8.884;2023-07-28T12:23:18;23.30;99.90
74822;DHT22;63353;48.702;8.884;2023-07-28T12:25:44;23.10;99.90
74822;DHT22;63353;48.702;8.884;2023-07-28T12:28:10;23.00;99.90
74822;DHT22;63353;48.702;8.884;2023-07-28T12:30:37;23.00;99.90
74822;DHT22;63353;48.702;8.884;2023-07-28T12:33:03;22.90;99.90
74822;DHT22;63353;48.702;8.884;2023-07-28T12:35:30;22.90;99.90
74822;DHT22;63353;48.702;8.884;2023-07-28T12:38:04;22.90;99.90
74822;DHT22;63353;48.702;8.884;2023-07-28T12:40:32;22.90;99.90
74822;DHT22;63353;48.702;8.884;2023-07-28T12:42:58;22.80;99.90
74822;DHT22;63353;48.702;8.884;2023-07-28T12:45:25;22.80;99.90
74822;DHT22;63353;48.702;8.884;2023-07-28T12:47:54;22.70;99.90
74822;DHT22;63353;48.702;8.884;2023-07-28T12:50:22;22.70;99.90
74822;DHT22;63353;48.702;8.884;2023-07-28T12:52:48;22.60;99.90
74822;DHT22;63353;48.702;8.884;2023-07-28T12:55:15;22.60;99.90
74822;DHT22;63353;48.702;8.884;2023-07-28T12:57:41;22.50;99.90
74822;DHT22;63353;48.702;8.884;2023-07-28T13:00:07;22.20;99.90
74822;DHT22;63353;48.702;8.884;2023-07-28T13:02:41;22.00;99.90
74822;DHT22;63353;48.702;8.884;2023-07-28T13:05:11;21.80;99.90
74822;DHT22;63353;48.702;8.884;2023-07-28T13:07:38;21.70;99.90
74822;DHT22;63353;48.702;8.884;2023-07-28T13:10:08;21.60;99.90
74822;DHT22;63353;48.702;8.884;2023-07-28T13:12:37;21.50;99.90
74822;DHT22;63353;48.702;8.884;2023-07-28T13:15:03;21.30;99.90
74822;DHT22;63353;48.702;8.884;2023-07-28T13:17:29;21.30;99.90
74822;DHT22;63353;48.702;8.884;2023-07-28T13:19:55;21.10;99.90
74822;DHT22;63353;48.702;8.884;2023-07-28T13:22:23;21.00;99.90
74822;DHT22;63353;48.702;8.884;2023-07-28T13:24:48;20.90;99.90
74822;DHT22;63353;48.702;8.884;2023-07-28T13:27:14;20.80;99.90
74822;DHT22;63353;48.702;8.884;2023-07-28T13:29:40;20.70;99.90
74822;DHT22;63353;48.702;8.884;2023-07-28T13:32:22;20.50;99.90
74822;DHT22;63353;48.702;8.884;2023-07-28T13:34:48;20.30;99.90
74822;DHT22;63353;48.702;8.884;2023-07-28T13:37:14;20.20;99.90
74822;DHT22;63353;48.702;8.884;2023-07-28T13:39:40;20.00;99.90
74822;DHT22;63353;48.702;8.884;2023-07-28T13:42:06;19.80;99.90
74822;DHT22;63353;48.702;8.884;2023-07-28T13:44:32;19.40;99.90
74822;DHT22;63353;48.702;8.884;2023-07-28T13:46:57;19.10;99.90
74822;DHT22;63353;48.702;8.884;2023-07-28T13:49:23;18.70;99.90
74822;DHT22;63353;48.702;8.884;2023-07-28T13:51:48;18.60;99.90
74822;DHT22;63353;48.702;8.884;2023-07-28T13:54:14;18.60;99.90
74822;DHT22;63353;48.702;8.884;2023-07-28T13:56:40;18.60;99.90
74822;DHT22;63353;48.702;8.884;2023-07-28T13:59:05;18.70;99.90
74822;DHT22;63353;48.702;8.884;2023-07-28T14:01:31;18.80;99.90
74822;DHT22;63353;48.702;8.884;2023-07-28T14:03:57;18.90;99.90
74822;DHT22;63353;48.702;8.884;2023-07-28T14:06:23;19.00;99.90
74822;DHT22;63353;48.702;8.884;2023-07-28T14:08:49;18.90;99.90
74822;DHT22;63353;48.702;8.884;2023-07-28T14:11:14;19.00;99.90
74822;DHT22;63353;48.702;8.884;2023-07-28T14:13:40;19.10;99.90
74822;DHT22;63353;48.702;8.884;2023-07-28T14:16:05;19.20;99.90
74822;DHT22;63353;48.702;8.884;2023-07-28T14:18:31;19.20;99.90
74822;DHT22;63353;48.702;8.884;2023-07-28T14:20:57;19.30;99.90
74822;DHT22;63353;48.702;8.884;2023-07-28T14:25:50;19.60;99.90
74822;DHT22;63353;48.702;8.884;2023-07-28T14:28:16;19.70;99.90
74822;DHT22;63353;48.702;8.884;2023-07-28T14:30:41;19.60;99.90
74822;DHT22;63353;48.702;8.884;2023-07-28T14:33:12;19.60;99.90
74822;DHT22;63353;48.702;8.884;2023-07-28T14:35:38;19.50;99.90
74822;DHT22;63353;48.702;8.884;2023-07-28T14:38:04;19.50;99.90
74822;DHT22;63353;48.702;8.884;2023-07-28T14:40:31;19.70;99.90
74822;DHT22;63353;48.702;8.884;2023-07-28T14:42:57;20.00;99.90
74822;DHT22;63353;48.702;8.884;2023-07-28T14:45:23;20.30;99.90
74822;DHT22;63353;48.702;8.884;2023-07-28T14:47:49;20.60;99.90
74822;DHT22;63353;48.702;8.884;2023-07-28T14:50:17;20.80;99.90
74822;DHT22;63353;48.702;8.884;2023-07-28T14:52:43;21.30;99.90
74822;DHT22;63353;48.702;8.884;2023-07-28T14:55:09;21.60;99.90
74822;DHT22;63353;48.702;8.884;2023-07-28T14:57:34;21.60;99.90
74822;DHT22;63353;48.702;8.884;2023-07-28T15:00:01;21.80;99.90
74822;DHT22;63353;48.702;8.884;2023-07-28T15:02:27;22.00;99.90
74822;DHT22;63353;48.702;8.884;2023-07-28T15:04:52;22.00;99.90
74822;DHT22;63353;48.702;8.884;2023-07-28T15:07:18;22.00;99.90
74822;DHT22;63353;48.702;8.884;2023-07-28T15:09:44;21.90;99.90
74822;DHT22;63353;48.702;8.884;2023-07-28T15:12:10;21.80;99.90
74822;DHT22;63353;48.702;8.884;2023-07-28T15:14:36;21.60;99.90
74822;DHT22;63353;48.702;8.884;2023-07-28T15:17:02;21.30;99.90
74822;DHT22;63353;48.702;8.884;2023-07-28T15:19:28;20.90;99.90
74822;DHT22;63353;48.702;8.884;2023-07-28T15:21:54;20.80;99.90
74822;DHT22;63353;48.702;8.884;2023-07-28T15:24:19;20.60;99.90
74822;DHT22;63353;48.702;8.884;2023-07-28T15:26:46;20.50;99.90
74822;DHT22;63353;48.702;8.884;2023-07-28T15:29:15;20.50;99.90
74822;DHT22;63353;48.702;8.884;2023-07-28T15:31:41;20.40;99.90
74822;DHT22;63353;48.702;8.884;2023-07-28T15:34:06;20.30;99.90
74822;DHT22;63353;48.702;8.884;2023-07-28T15:36:32;20.30;99.90
74822;DHT22;63353;48.702;8.884;2023-07-28T15:38:58;20.30;99.90
74822;DHT22;63353;48.702;8.884;2023-07-28T15:41:29;20.20;99.90
74822;DHT22;63353;48.702;8.884;2023-07-28T15:43:55;20.20;99.90